createdAt,value
2022-08-14T00:01:55.888Z,2.03
2022-08-14T00:06:59.258Z,2.13
2022-08-14T00:12:00.938Z,2.30
2022-08-14T00:17:02.807Z,1.75
2022-08-14T00:22:04.487Z,2.28
2022-08-14T00:27:07.010Z,2.17
2022-08-14T00:32:52.811Z,2.00
2022-08-14T00:37:31.976Z,2.17
2022-08-14T00:42:55.393Z,2.50
2022-08-14T00:47:55.698Z,2.10
2022-08-14T00:53:00.189Z,2.47
2022-08-14T00:58:32.678Z,2.90
2022-08-14T01:03:39.627Z,2.92
2022-08-14T01:08:51.650Z,2.97
2022-08-14T01:14:01.545Z,3.08
2022-08-14T01:19:25.226Z,3.00
2022-08-14T01:29:58.595Z,2.65
2022-08-14T01:35:17.494Z,3.15
2022-08-14T01:40:25.425Z,2.47
2022-08-14T01:45:28.715Z,2.97
2022-08-14T01:50:33.818Z,2.75
2022-08-14T01:55:40.263Z,2.88
2022-08-14T02:00:42.131Z,2.78
2022-08-14T02:05:43.719Z,2.70
2022-08-14T02:10:46.739Z,2.45
2022-08-14T02:15:50.293Z,2.60
2022-08-14T02:20:51.927Z,2.60
2022-08-14T02:26:24.330Z,2.80
2022-08-14T02:31:42.118Z,2.78
2022-08-14T02:37:03.638Z,2.88
2022-08-14T02:42:12.999Z,3.00
2022-08-14T02:47:19.076Z,2.60
2022-08-14T02:52:55.877Z,2.97
2022-08-14T02:57:43.230Z,2.70
2022-08-14T03:02:56.085Z,2.63
2022-08-14T03:08:15.161Z,2.65
2022-08-14T03:13:21.682Z,2.60
2022-08-14T03:18:31.597Z,2.72
2022-08-14T03:23:37.742Z,3.20
2022-08-14T03:28:43.594Z,3.22
2022-08-14T03:33:45.289Z,3.20
2022-08-14T03:39:15.244Z,3.60
2022-08-14T03:45:26.345Z,3.60
2022-08-14T03:49:42.570Z,3.60
2022-08-14T03:54:46.618Z,3.85
2022-08-14T03:59:54.290Z,3.90
2022-08-14T04:04:55.879Z,4.20
2022-08-14T04:10:10.065Z,3.28
2022-08-14T04:15:11.698Z,4.00
2022-08-14T04:20:13.358Z,3.95
2022-08-14T04:25:27.840Z,3.40
2022-08-14T04:30:32.732Z,3.08
2022-08-14T04:35:55.493Z,3.72
2022-08-14T04:41:15.930Z,3.13
2022-08-14T04:46:55.772Z,3.38
2022-08-14T04:51:46.920Z,3.70
2022-08-14T04:56:57.874Z,3.63
2022-08-14T05:02:01.564Z,4.40
2022-08-14T05:07:04.152Z,4.05
2022-08-14T05:13:11.017Z,3.80
2022-08-14T05:17:43.961Z,3.65
2022-08-14T05:22:56.033Z,3.47
2022-08-14T05:28:00.163Z,3.90
2022-08-14T05:33:07.534Z,4.78
2022-08-14T05:38:22.455Z,4.43
2022-08-14T05:43:41.270Z,3.30
2022-08-14T05:48:47.762Z,2.83
2022-08-14T05:54:00.230Z,2.42
2022-08-14T05:59:12.286Z,2.70
2022-08-14T06:04:13.854Z,2.60
2022-08-14T06:09:17.380Z,2.75
2022-08-14T06:14:21.502Z,2.90
2022-08-14T06:19:25.449Z,3.13
2022-08-14T06:24:30.230Z,3.00
2022-08-14T06:29:37.574Z,3.17
2022-08-14T06:35:04.069Z,2.60
2022-08-14T06:40:01.482Z,2.88
2022-08-14T06:45:08.016Z,2.42
2022-08-14T06:50:12.689Z,2.85
2022-08-14T06:55:19.301Z,2.35
2022-08-14T07:00:31.157Z,2.45
2022-08-14T07:05:55.664Z,2.40
2022-08-14T07:11:01.542Z,2.50
2022-08-14T07:16:05.471Z,2.53
2022-08-14T07:21:09.380Z,2.33
2022-08-14T07:26:13.153Z,2.65
2022-08-14T07:31:16.306Z,2.80
2022-08-14T07:36:26.984Z,2.42
2022-08-14T07:41:35.630Z,2.75
2022-08-14T07:46:38.009Z,2.53
2022-08-14T07:51:42.030Z,2.72
2022-08-14T07:56:48.809Z,2.90
2022-08-14T08:01:53.275Z,2.90
2022-08-14T08:07:00.736Z,2.55
2022-08-14T08:12:05.092Z,2.42
2022-08-14T08:17:11.413Z,2.85
2022-08-14T08:22:13.089Z,2.50
2022-08-14T08:27:17.228Z,2.50
2022-08-14T08:32:19.098Z,2.25
2022-08-14T08:37:21.015Z,2.63
2022-08-14T08:42:31.682Z,2.40
2022-08-14T08:47:40.947Z,2.50
2022-08-14T08:52:53.700Z,2.38
2022-08-14T08:58:00.800Z,2.10
2022-08-14T09:03:11.065Z,2.40
2022-08-14T09:08:30.560Z,1.77
2022-08-14T09:13:33.567Z,1.80
2022-08-14T09:18:35.976Z,2.00
2022-08-14T09:24:26.730Z,2.05
2022-08-14T09:28:59.779Z,2.00
2022-08-14T09:34:27.215Z,1.67
2022-08-14T09:39:48.983Z,1.93
2022-08-14T09:45:07.862Z,1.98
2022-08-14T09:55:23.814Z,2.17
2022-08-14T10:00:42.354Z,2.45
2022-08-14T10:05:44.182Z,2.30
2022-08-14T10:10:45.879Z,2.10
2022-08-14T10:16:00.191Z,1.90
2022-08-14T10:21:02.780Z,1.92
2022-08-14T10:26:22.782Z,2.40
2022-08-14T10:31:44.476Z,1.67
2022-08-14T10:37:02.256Z,2.15
2022-08-14T10:42:18.075Z,1.90
2022-08-14T10:47:41.209Z,2.40
2022-08-14T10:52:43.289Z,2.30
2022-08-14T10:57:50.036Z,1.85
2022-08-14T11:03:02.087Z,1.90
2022-08-14T11:08:12.810Z,1.80
2022-08-14T11:31:24.124Z,1.55
2022-08-14T11:42:56.141Z,1.77
2022-08-14T11:48:12.780Z,1.60
2022-08-14T11:53:31.412Z,1.58
2022-08-14T11:58:35.766Z,1.50
2022-08-14T12:03:52.218Z,1.48
2022-08-14T12:09:00.061Z,1.75
2022-08-14T12:14:13.305Z,1.58
2022-08-14T12:19:33.511Z,1.60
2022-08-14T12:24:40.184Z,1.40
2022-08-14T12:29:53.511Z,1.33
2022-08-14T12:34:55.353Z,1.40
2022-08-14T12:40:20.662Z,1.58
2022-08-14T12:45:31.935Z,1.60
2022-08-14T12:50:42.007Z,1.35
2022-08-14T12:56:22.545Z,1.50
2022-08-14T13:01:16.948Z,1.50
2022-08-14T13:06:24.539Z,1.40
2022-08-14T13:11:31.208Z,1.58
2022-08-14T13:16:38.831Z,1.40
2022-08-14T13:22:05.427Z,1.50
2022-08-14T13:27:06.266Z,1.45
2022-08-14T13:32:12.915Z,1.80
2022-08-14T13:37:17.287Z,1.25
2022-08-14T13:42:23.105Z,1.35
2022-08-14T13:47:30.333Z,1.38
2022-08-14T13:52:59.569Z,1.23
2022-08-14T13:58:05.048Z,1.30
2022-08-14T14:03:08.736Z,1.35
2022-08-14T14:08:18.457Z,1.17
2022-08-14T14:13:22.135Z,1.30
2022-08-14T14:18:34.496Z,1.38
2022-08-14T14:23:37.961Z,1.67
2022-08-14T14:28:41.693Z,1.98
2022-08-14T14:33:48.657Z,1.70
2022-08-14T14:38:54.254Z,2.08
2022-08-14T14:43:58.858Z,1.70
2022-08-14T14:49:01.614Z,1.95
2022-08-14T14:54:06.815Z,1.88
2022-08-14T14:59:11.461Z,2.30
2022-08-14T15:10:28.299Z,1.88
2022-08-14T15:15:37.344Z,1.70
2022-08-14T15:20:39.576Z,1.65
2022-08-14T15:25:53.175Z,1.92
2022-08-14T15:30:59.201Z,1.67
2022-08-14T15:36:01.639Z,1.92
2022-08-14T15:41:08.542Z,1.63
2022-08-14T15:46:10.411Z,1.70
2022-08-14T15:51:32.083Z,1.60
2022-08-14T15:56:43.281Z,1.83
2022-08-14T16:01:54.119Z,1.70
2022-08-14T16:06:56.397Z,1.60
2022-08-14T16:11:58.168Z,1.63
2022-08-14T16:17:03.177Z,1.48
2022-08-14T16:22:58.294Z,1.30
2022-08-14T16:27:37.167Z,1.25
2022-08-14T16:32:54.809Z,1.30
2022-08-14T16:37:59.040Z,1.60
2022-08-14T16:43:25.901Z,1.20
2022-08-14T16:48:57.287Z,1.55
2022-08-14T16:53:52.111Z,1.80
2022-08-14T16:59:15.128Z,1.30
2022-08-14T17:04:25.314Z,1.70
2022-08-14T17:09:33.688Z,1.25
2022-08-14T17:14:50.744Z,1.50
2022-08-14T17:20:08.866Z,1.65
2022-08-14T17:25:31.334Z,2.25
2022-08-14T17:30:53.711Z,3.00
2022-08-14T17:36:21.153Z,3.38
2022-08-14T17:41:32.969Z,2.90
2022-08-14T17:46:43.330Z,3.60
2022-08-14T17:52:16.656Z,3.15
2022-08-14T17:57:23.157Z,3.58
2022-08-14T18:02:31.106Z,2.90
2022-08-14T18:07:50.563Z,2.80
2022-08-14T18:12:57.006Z,3.08
2022-08-14T18:18:00.432Z,3.00
2022-08-14T18:23:04.647Z,2.53
2022-08-14T18:28:15.980Z,3.33
2022-08-14T18:33:22.580Z,3.05
2022-08-14T18:38:55.402Z,2.65
2022-08-14T18:43:59.054Z,2.63
2022-08-14T18:49:15.210Z,3.05
2022-08-14T18:54:37.460Z,3.70
2022-08-14T18:59:42.343Z,3.17
2022-08-14T19:04:44.858Z,2.72
2022-08-14T19:09:53.790Z,2.90
2022-08-14T19:15:08.133Z,2.73
2022-08-14T19:20:11.405Z,2.95
2022-08-14T19:25:48.068Z,2.67
2022-08-14T19:31:55.340Z,2.65
2022-08-14T19:37:05.765Z,2.53
2022-08-14T19:42:08.654Z,3.28
2022-08-14T19:47:13.081Z,2.58
2022-08-14T19:52:39.515Z,2.75
2022-08-14T19:57:41.976Z,2.97
2022-08-14T20:03:10.926Z,2.80
2022-08-14T20:11:01.258Z,2.63
2022-08-14T20:13:38.706Z,2.58
2022-08-14T20:18:51.646Z,2.88
2022-08-14T20:24:30.729Z,3.10
2022-08-14T20:34:51.331Z,2.40
2022-08-14T20:39:54.696Z,2.85
2022-08-14T20:45:17.962Z,2.58
2022-08-14T20:50:28.650Z,2.67
2022-08-14T20:55:37.177Z,2.85
2022-08-14T21:00:52.488Z,3.22
2022-08-14T21:06:01.570Z,2.72
2022-08-14T21:11:23.036Z,2.85
2022-08-14T21:22:26.898Z,2.90
2022-08-14T21:27:28.506Z,3.60
2022-08-14T21:32:50.680Z,3.15
2022-08-14T21:37:59.685Z,3.45
2022-08-14T21:43:04.924Z,2.90
2022-08-14T21:48:09.160Z,2.67
2022-08-14T21:53:14.423Z,3.30
2022-08-14T21:58:54.417Z,3.15
2022-08-14T22:03:44.842Z,2.90
2022-08-14T22:13:56.265Z,3.50
2022-08-14T22:19:06.009Z,3.40
2022-08-14T22:24:25.949Z,3.17
2022-08-14T22:29:36.287Z,3.35
2022-08-14T22:34:40.955Z,3.60
2022-08-14T22:40:51.213Z,3.67
2022-08-14T22:45:07.357Z,3.45
2022-08-14T22:50:31.885Z,2.80
2022-08-14T22:55:31.372Z,2.95
2022-08-14T23:00:38.343Z,2.75
2022-08-14T23:05:52.988Z,3.22
2022-08-14T23:10:56.223Z,3.00
2022-08-14T23:15:58.539Z,3.08
2022-08-14T23:21:01.127Z,3.10
2022-08-14T23:26:47.903Z,3.50
2022-08-14T23:31:35.679Z,3.40
2022-08-14T23:36:54.058Z,2.90
2022-08-14T23:42:02.285Z,3.00
2022-08-14T23:47:10.785Z,2.92
2022-08-14T23:52:51.309Z,3.28
2022-08-14T23:57:34.986Z,3.35
